createdAt,value
2018-09-19T00:00:05.121Z,47.45
2018-09-19T00:02:33.389Z,46.91
2018-09-19T00:05:01.725Z,46.84
2018-09-19T00:07:30.048Z,46.86
2018-09-19T00:09:58.613Z,46.92
2018-09-19T00:12:26.907Z,47.26
2018-09-19T00:14:55.226Z,47.29
2018-09-19T00:17:23.588Z,47.02
2018-09-19T00:19:51.907Z,47.83
2018-09-19T00:22:20.271Z,47.22
2018-09-19T00:24:48.538Z,47.84
2018-09-19T00:27:16.901Z,47.07
2018-09-19T00:29:45.183Z,47.63
2018-09-19T00:32:13.554Z,47.93
2018-09-19T00:34:41.877Z,47.20
2018-09-19T00:37:10.172Z,47.02
2018-09-19T00:39:38.478Z,47.40
2018-09-19T00:42:06.761Z,47.93
2018-09-19T00:44:35.073Z,47.73
2018-09-19T00:47:03.394Z,47.69
2018-09-19T00:49:32.066Z,47.59
2018-09-19T00:52:00.352Z,46.97
2018-09-19T00:54:28.642Z,47.77
2018-09-19T00:56:56.970Z,47.33
2018-09-19T00:59:25.310Z,47.31
2018-09-19T01:01:53.634Z,47.32
2018-09-19T01:04:21.942Z,47.71
2018-09-19T01:06:50.610Z,48.31
2018-09-19T01:09:18.926Z,48.23
2018-09-19T01:11:47.224Z,48.15
2018-09-19T01:14:15.546Z,47.50
2018-09-19T01:16:43.829Z,48.15
2018-09-19T01:19:12.197Z,47.34
2018-09-19T01:21:40.480Z,48.30
2018-09-19T01:24:08.803Z,48.23
2018-09-19T01:26:37.110Z,47.47
2018-09-19T01:29:05.634Z,47.43
2018-09-19T01:31:34.106Z,47.58
2018-09-19T01:34:02.529Z,47.77
2018-09-19T01:36:30.916Z,47.89
2018-09-19T01:38:59.344Z,48.31
2018-09-19T01:41:27.725Z,47.94
2018-09-19T01:43:56.280Z,48.03
2018-09-19T01:46:24.653Z,48.27
2018-09-19T01:48:53.038Z,47.73
2018-09-19T01:51:21.446Z,47.68
2018-09-19T01:53:49.731Z,47.56
2018-09-19T01:56:18.011Z,47.63
2018-09-19T01:58:46.379Z,47.66
2018-09-19T02:01:14.678Z,48.39
2018-09-19T02:03:42.992Z,47.69
2018-09-19T02:06:11.331Z,47.67
2018-09-19T02:08:39.605Z,47.69
2018-09-19T02:11:08.413Z,48.48
2018-09-19T02:13:36.689Z,48.05
2018-09-19T02:16:05.131Z,47.77
2018-09-19T02:18:33.439Z,48.33
2018-09-19T04:45:20.133Z,50.40
2018-09-19T04:47:48.442Z,50.43
2018-09-19T04:50:16.782Z,50.57
2018-09-19T04:52:45.173Z,50.13
2018-09-19T04:55:13.524Z,50.67
2018-09-19T04:57:41.939Z,50.07
2018-09-19T05:00:10.416Z,49.60
2018-09-19T05:02:38.840Z,49.96
2018-09-19T05:05:07.224Z,49.91
2018-09-19T05:07:35.703Z,50.39
2018-09-19T05:10:04.111Z,49.99
2018-09-19T05:12:32.510Z,49.84
2018-09-19T05:15:00.865Z,50.01
2018-09-19T05:17:29.141Z,50.53
2018-09-19T05:19:57.437Z,49.40
2018-09-19T05:22:25.759Z,48.13
2018-09-19T05:24:54.132Z,48.16
2018-09-19T05:27:22.693Z,47.42
2018-09-19T05:29:50.961Z,47.64
2018-09-19T05:32:19.220Z,46.77
2018-09-19T05:34:47.814Z,47.06
2018-09-19T05:37:16.127Z,46.81
2018-09-19T05:39:44.418Z,47.00
2018-09-19T05:42:12.722Z,47.20
2018-09-19T05:44:41.018Z,48.11
2018-09-19T05:47:09.310Z,47.14
2018-09-19T05:49:37.574Z,47.49
2018-09-19T05:52:05.966Z,47.32
2018-09-19T05:54:34.274Z,47.24
2018-09-19T05:57:02.647Z,47.36
2018-09-19T05:59:30.994Z,48.09
2018-09-19T06:01:59.284Z,48.12
2018-09-19T06:04:27.550Z,47.65
2018-09-19T06:06:55.928Z,47.32
2018-09-19T06:09:25.226Z,48.05
2018-09-19T06:11:53.487Z,47.30
2018-09-19T06:14:21.822Z,47.47
2018-09-19T06:16:50.168Z,47.37
2018-09-19T06:19:18.619Z,47.78
2018-09-19T06:21:46.863Z,48.07
2018-09-19T06:24:15.157Z,47.25
2018-09-19T06:26:43.421Z,48.04
2018-09-19T06:29:11.775Z,47.73
2018-09-19T06:31:40.027Z,47.92
2018-09-19T06:34:08.475Z,47.80
2018-09-19T06:36:36.725Z,47.54
2018-09-19T06:39:06.091Z,48.36
2018-09-19T06:41:34.490Z,48.42
2018-09-19T06:44:02.829Z,47.42
2018-09-19T06:46:31.113Z,48.12
2018-09-19T06:48:59.414Z,47.06
2018-09-19T06:51:28.833Z,47.31
2018-09-19T06:53:57.373Z,46.68
2018-09-19T06:56:25.694Z,47.75
2018-09-19T06:58:54.027Z,47.78
2018-09-19T07:01:22.470Z,47.25
2018-09-19T07:03:50.837Z,47.39
2018-09-19T07:06:19.225Z,47.03
2018-09-19T07:08:47.648Z,47.82
2018-09-19T07:11:15.943Z,47.26
2018-09-19T07:13:44.346Z,47.75
2018-09-19T07:16:12.727Z,47.83
2018-09-19T07:18:41.050Z,47.12
2018-09-19T07:21:09.285Z,47.82
2018-09-19T07:23:37.757Z,47.73
2018-09-19T07:26:06.230Z,47.31
2018-09-19T07:28:34.565Z,47.16
2018-09-19T07:31:02.936Z,47.71
2018-09-19T07:33:31.289Z,47.73
2018-09-19T07:35:59.626Z,46.95
2018-09-19T07:38:28.115Z,47.40
2018-09-19T07:40:56.529Z,46.90
2018-09-19T07:43:24.905Z,47.79
2018-09-19T07:45:53.162Z,47.36
2018-09-19T07:48:21.484Z,47.73
2018-09-19T07:50:49.726Z,47.38
2018-09-19T07:53:18.046Z,47.91
2018-09-19T07:55:46.335Z,47.66
2018-09-19T07:58:15.122Z,47.79
2018-09-19T08:00:43.583Z,47.81
2018-09-19T08:03:11.810Z,47.03
2018-09-19T08:05:40.155Z,47.86
2018-09-19T08:08:08.566Z,47.96
2018-09-19T08:10:36.919Z,47.30
2018-09-19T08:13:05.190Z,47.91
2018-09-19T08:15:33.565Z,47.90
2018-09-19T08:18:01.836Z,47.06
2018-09-19T08:20:30.210Z,47.55
2018-09-19T08:22:58.481Z,47.56
2018-09-19T08:25:26.766Z,47.57
2018-09-19T08:27:55.042Z,47.43
2018-09-19T08:30:23.341Z,46.47
2018-09-19T08:32:51.662Z,47.28
2018-09-19T08:35:19.966Z,47.21
2018-09-19T08:37:48.637Z,46.30
2018-09-19T08:40:16.959Z,46.23
2018-09-19T08:42:45.465Z,46.96
2018-09-19T08:45:13.930Z,46.03
2018-09-19T08:47:42.526Z,45.73
2018-09-19T08:50:10.945Z,46.21
2018-09-19T08:52:39.261Z,45.76
2018-09-19T08:55:07.717Z,45.73
2018-09-19T08:57:36.066Z,45.81
2018-09-19T09:00:04.596Z,46.70
2018-09-19T09:02:33.105Z,45.86
2018-09-19T09:05:01.486Z,45.73
2018-09-19T09:07:29.851Z,46.08
2018-09-19T09:09:58.318Z,45.60
2018-09-19T09:12:26.677Z,46.16
2018-09-19T09:14:55.146Z,46.11
2018-09-19T09:17:23.549Z,46.22
2018-09-19T09:19:51.929Z,45.31
2018-09-19T09:22:20.190Z,45.09
2018-09-19T09:24:48.560Z,45.47
2018-09-19T09:27:16.875Z,45.58
2018-09-19T09:29:45.222Z,44.81
2018-09-19T09:32:13.630Z,45.49
2018-09-19T09:34:42.021Z,44.49
2018-09-19T09:37:10.423Z,44.42
2018-09-19T09:39:38.718Z,44.79
2018-09-19T09:42:06.965Z,44.74
2018-09-19T09:44:35.218Z,43.75
2018-09-19T09:47:03.555Z,43.65
2018-09-19T09:49:31.830Z,43.79
2018-09-19T09:52:00.086Z,42.88
2018-09-19T09:54:28.329Z,43.61
2018-09-19T09:56:56.668Z,43.24
2018-09-19T09:59:24.913Z,42.23
2018-09-19T10:01:53.183Z,41.97
2018-09-19T10:04:21.463Z,42.37
2018-09-19T10:06:49.789Z,42.02
2018-09-19T10:09:18.166Z,41.70
2018-09-19T10:11:46.543Z,40.69
2018-09-19T10:14:14.906Z,40.36
2018-09-19T10:16:43.198Z,40.69
2018-09-19T10:19:11.573Z,39.75
2018-09-19T10:21:39.897Z,39.28
2018-09-19T10:24:08.187Z,39.29
2018-09-19T10:26:36.469Z,39.07
2018-09-19T10:29:04.774Z,38.31
2018-09-19T10:31:33.125Z,37.54
2018-09-19T10:34:01.417Z,36.80
2018-09-19T10:36:29.698Z,36.37
2018-09-19T10:38:58.074Z,35.80
2018-09-19T10:41:26.461Z,35.25
2018-09-19T10:43:55.388Z,36.20
2018-09-19T10:46:23.693Z,37.96
2018-09-19T10:48:51.954Z,39.79
2018-09-19T10:51:20.226Z,40.03
2018-09-19T10:53:48.541Z,40.49
2018-09-19T10:56:16.837Z,41.45
2018-09-19T10:58:45.787Z,40.61
2018-09-19T11:01:14.123Z,39.77
2018-09-19T11:03:42.390Z,41.74
2018-09-19T11:06:10.702Z,42.02
2018-09-19T11:08:38.983Z,40.48
2018-09-19T11:11:07.385Z,38.48
2018-09-19T11:13:35.727Z,40.01
2018-09-19T11:16:04.027Z,40.42
2018-09-19T11:18:32.323Z,39.58
2018-09-19T11:21:00.634Z,38.93
2018-09-19T11:23:28.914Z,37.68
2018-09-19T11:25:57.218Z,39.43
2018-09-19T11:28:25.502Z,36.48
2018-09-19T11:30:53.791Z,37.08
2018-09-19T11:33:22.072Z,38.12
2018-09-19T11:35:50.386Z,38.58
2018-09-19T11:38:18.774Z,40.72
2018-09-19T11:40:48.187Z,41.16
2018-09-19T11:43:16.593Z,42.77
2018-09-19T11:45:45.083Z,42.78
2018-09-19T11:48:13.610Z,43.17
2018-09-19T11:50:42.027Z,44.31
2018-09-19T11:53:15.578Z,44.43
2018-09-19T11:55:44.050Z,44.80
2018-09-19T11:58:12.379Z,44.61
2018-09-19T12:00:40.730Z,44.88
2018-09-19T12:03:09.066Z,44.18
2018-09-19T12:05:37.358Z,44.19
2018-09-19T12:08:05.774Z,45.12
2018-09-19T12:10:34.057Z,44.82
2018-09-19T12:13:02.546Z,44.52
2018-09-19T12:15:30.890Z,45.27
2018-09-19T12:17:59.202Z,45.46
2018-09-19T12:20:27.471Z,44.94
2018-09-19T12:22:55.834Z,45.28
2018-09-19T12:25:24.143Z,44.61
2018-09-19T12:27:52.441Z,45.52
2018-09-19T12:30:20.715Z,45.49
2018-09-19T12:32:49.062Z,45.44
2018-09-19T12:35:17.473Z,45.56
2018-09-19T12:37:45.857Z,44.67
2018-09-19T12:40:14.189Z,44.81
2018-09-19T12:42:42.586Z,45.50
2018-09-19T12:45:10.958Z,44.97
2018-09-19T12:47:39.304Z,44.76
2018-09-19T12:50:07.618Z,44.46
2018-09-19T12:52:36.121Z,44.94
2018-09-19T12:55:04.437Z,44.59
2018-09-19T12:57:32.750Z,45.48
2018-09-19T13:00:01.950Z,45.10
2018-09-19T13:02:30.266Z,44.73
2018-09-19T13:04:58.539Z,44.85
2018-09-19T13:07:26.854Z,44.92
2018-09-19T13:09:55.143Z,45.50
2018-09-19T13:12:23.434Z,44.94
2018-09-19T13:14:51.757Z,45.61
2018-09-19T13:17:20.072Z,45.63
2018-09-19T13:19:48.390Z,44.95
2018-09-19T13:22:16.699Z,44.87
2018-09-19T13:24:45.031Z,45.57
2018-09-19T13:27:13.399Z,45.19
2018-09-19T13:29:41.658Z,44.95
2018-09-19T13:32:09.987Z,45.04
2018-09-19T13:34:38.283Z,45.39
2018-09-19T13:37:07.998Z,45.10
2018-09-19T13:39:36.285Z,45.56
2018-09-19T13:42:04.647Z,45.06
2018-09-19T13:44:32.974Z,45.83
2018-09-19T13:47:01.295Z,45.76
2018-09-19T13:49:31.923Z,45.04
2018-09-19T13:52:00.250Z,45.24
2018-09-19T13:54:29.118Z,45.30
2018-09-19T13:56:57.410Z,46.03
2018-09-19T13:59:25.694Z,45.12
2018-09-19T14:01:54.054Z,45.19
2018-09-19T14:04:22.596Z,45.91
2018-09-19T14:06:50.827Z,45.28
2018-09-19T14:09:19.099Z,45.44
2018-09-19T14:11:47.416Z,45.13
2018-09-19T14:14:15.662Z,45.51
2018-09-19T14:16:43.921Z,45.21
2018-09-19T14:19:13.386Z,45.43
2018-09-19T14:21:41.650Z,45.19
2018-09-19T14:24:09.945Z,45.48
2018-09-19T14:26:38.283Z,46.02
2018-09-19T14:29:06.627Z,45.17
2018-09-19T14:31:34.907Z,45.39
2018-09-19T14:34:03.217Z,46.11
2018-09-19T14:36:32.609Z,45.69
2018-09-19T14:39:00.994Z,45.31
2018-09-19T14:41:29.519Z,46.19
2018-09-19T14:43:57.886Z,46.08
2018-09-19T14:46:26.305Z,45.96
2018-09-19T14:48:54.774Z,45.29
2018-09-19T14:51:23.153Z,45.96
2018-09-19T14:53:51.475Z,46.00
2018-09-19T14:56:19.761Z,45.80
2018-09-19T14:58:48.055Z,45.42
2018-09-19T15:01:16.331Z,46.06
2018-09-19T15:03:44.602Z,45.98
2018-09-19T15:06:12.962Z,46.01
2018-09-19T15:08:41.242Z,46.14
2018-09-19T15:11:09.554Z,45.60
2018-09-19T15:13:37.822Z,45.55
2018-09-19T15:16:06.094Z,45.98
2018-09-19T15:18:34.406Z,45.40
2018-09-19T15:21:02.721Z,45.25
2018-09-19T15:23:31.022Z,45.27
2018-09-19T15:25:59.394Z,46.08
2018-09-19T15:28:27.739Z,45.58
2018-09-19T15:30:56.030Z,45.70
2018-09-19T15:33:24.321Z,45.73
2018-09-19T15:35:59.493Z,45.84
2018-09-19T15:38:27.900Z,45.85
2018-09-19T15:40:56.193Z,46.32
2018-09-19T15:43:24.551Z,45.39
2018-09-19T15:45:52.808Z,45.36
2018-09-19T15:48:21.113Z,46.41
2018-09-19T15:50:49.394Z,45.86
2018-09-19T15:53:17.697Z,46.39
2018-09-19T15:55:46.032Z,46.29
2018-09-19T15:58:14.343Z,46.26
2018-09-19T16:00:42.654Z,45.54
2018-09-19T16:03:11.010Z,45.95
2018-09-19T16:05:39.328Z,46.29
2018-09-19T16:08:07.647Z,45.93
2018-09-19T16:10:35.962Z,45.73
2018-09-19T16:13:04.278Z,45.96
2018-09-19T16:15:32.592Z,43.75
2018-09-19T16:18:01.006Z,41.89
2018-09-19T16:20:29.332Z,40.98
2018-09-19T16:22:57.682Z,41.30
2018-09-19T16:25:26.018Z,42.39
2018-09-19T16:27:54.290Z,42.45
2018-09-19T16:30:22.585Z,43.53
2018-09-19T16:32:50.866Z,44.29
2018-09-19T16:35:19.206Z,44.01
2018-09-19T16:37:47.502Z,44.44
2018-09-19T16:40:15.789Z,45.10
2018-09-19T16:42:44.080Z,44.97
2018-09-19T16:45:12.465Z,44.64
2018-09-19T16:47:40.763Z,45.64
2018-09-19T16:50:10.023Z,45.27
2018-09-19T16:52:38.341Z,45.18
2018-09-19T16:55:06.619Z,46.13
2018-09-19T16:57:34.923Z,44.91
2018-09-19T17:00:03.253Z,45.96
2018-09-19T17:02:31.548Z,46.07
2018-09-19T17:04:59.844Z,46.20
2018-09-19T17:07:28.134Z,46.50
2018-09-19T17:09:56.422Z,45.87
2018-09-19T17:12:24.942Z,45.96
2018-09-19T17:14:53.303Z,46.47
2018-09-19T17:17:21.618Z,46.64
2018-09-19T17:19:49.921Z,46.01
2018-09-19T17:22:18.207Z,45.83
2018-09-19T17:24:46.593Z,46.77
2018-09-19T17:27:14.862Z,45.87
2018-09-19T17:29:43.162Z,46.71
2018-09-19T17:32:11.471Z,45.94
2018-09-19T17:34:39.798Z,46.30
2018-09-19T17:37:08.173Z,46.68
2018-09-19T17:39:36.691Z,46.96
2018-09-19T17:42:04.979Z,46.13
2018-09-19T17:44:33.335Z,46.93
2018-09-19T17:47:01.719Z,47.01
2018-09-19T17:49:30.064Z,46.38
2018-09-19T17:51:58.370Z,46.24
2018-09-19T17:54:26.703Z,47.11
2018-09-19T17:56:54.989Z,46.49
2018-09-19T17:59:23.299Z,46.73
2018-09-19T18:01:51.631Z,46.79
2018-09-19T18:04:20.000Z,46.57
2018-09-19T18:06:48.387Z,46.90
2018-09-19T18:09:16.878Z,47.09
2018-09-19T18:11:45.166Z,47.30
2018-09-19T18:14:13.538Z,47.03
2018-09-19T18:16:41.818Z,47.29
2018-09-19T18:19:10.179Z,46.46
2018-09-19T18:21:38.458Z,46.57
2018-09-19T18:24:06.752Z,47.22
2018-09-19T18:26:35.067Z,46.85
2018-09-19T18:29:03.359Z,46.51
2018-09-19T18:31:31.686Z,46.62
2018-09-19T18:34:00.226Z,46.79
2018-09-19T18:36:28.531Z,46.83
2018-09-19T18:38:56.798Z,46.76
2018-09-19T18:41:25.075Z,47.73
2018-09-19T18:43:53.442Z,46.94
2018-09-19T18:46:21.798Z,46.87
2018-09-19T18:48:50.106Z,46.98
2018-09-19T18:51:18.378Z,47.84
2018-09-19T18:53:46.658Z,47.53
2018-09-19T18:56:15.050Z,47.39
2018-09-19T18:58:43.325Z,47.97
2018-09-19T19:01:11.606Z,47.17
2018-09-19T19:03:39.893Z,47.96
2018-09-19T19:06:08.285Z,47.84
2018-09-19T19:08:36.624Z,47.31
2018-09-19T19:11:04.967Z,47.53
2018-09-19T19:13:33.266Z,47.87
2018-09-19T19:16:01.587Z,48.08
2018-09-19T19:18:29.977Z,47.70
2018-09-19T19:20:58.301Z,47.95
2018-09-19T19:23:26.562Z,47.65
2018-09-19T19:25:54.883Z,48.06
2018-09-19T19:28:23.239Z,48.06
2018-09-19T19:30:52.558Z,47.40
2018-09-19T19:33:20.854Z,47.22
2018-09-19T19:35:49.272Z,48.11
2018-09-19T19:38:17.749Z,47.82
2018-09-19T19:40:46.115Z,47.92
2018-09-19T19:43:14.382Z,48.03
2018-09-19T19:45:42.674Z,47.79
2018-09-19T19:48:10.994Z,47.46
2018-09-19T19:50:39.262Z,47.43
2018-09-19T19:53:07.771Z,48.31
2018-09-19T19:55:36.042Z,47.50
2018-09-19T19:58:04.828Z,47.65
2018-09-19T20:00:33.194Z,48.30
2018-09-19T20:03:01.543Z,48.41
2018-09-19T20:05:29.891Z,47.80
2018-09-19T20:07:58.190Z,48.54
2018-09-19T20:10:26.650Z,47.60
2018-09-19T20:12:55.004Z,47.73
2018-09-19T20:15:23.431Z,48.66
2018-09-19T20:17:51.762Z,47.72
2018-09-19T20:20:20.018Z,47.79
2018-09-19T20:22:48.491Z,47.85
2018-09-19T20:25:16.810Z,48.30
2018-09-19T20:27:45.118Z,48.65
2018-09-19T20:30:13.433Z,48.38
2018-09-19T20:32:41.722Z,48.61
2018-09-19T20:35:10.030Z,47.91
2018-09-19T20:37:38.487Z,48.17
2018-09-19T20:40:06.875Z,48.63
2018-09-19T20:42:35.318Z,48.21
2018-09-19T20:45:03.759Z,48.29
2018-09-19T20:47:32.133Z,48.71
2018-09-19T20:50:00.555Z,48.53
2018-09-19T20:52:29.013Z,47.95
2018-09-19T20:54:57.404Z,48.86
2018-09-19T20:57:25.771Z,48.48
2018-09-19T20:59:54.177Z,48.73
2018-09-19T21:02:22.566Z,48.79
2018-09-19T21:04:50.980Z,48.62
2018-09-19T21:07:19.313Z,48.63
2018-09-19T21:09:47.679Z,48.40
2018-09-19T21:12:15.991Z,48.76
2018-09-19T21:14:44.306Z,48.16
2018-09-19T21:17:12.651Z,48.85
2018-09-19T21:19:41.054Z,48.04
2018-09-19T21:22:09.446Z,48.06
2018-09-19T21:24:37.764Z,48.83
2018-09-19T21:27:06.139Z,48.26
2018-09-19T21:29:34.461Z,48.14
2018-09-19T21:32:02.794Z,48.47
2018-09-19T21:34:31.165Z,48.81
2018-09-19T21:36:59.455Z,48.80
2018-09-19T21:39:27.851Z,48.15
2018-09-19T21:41:56.202Z,48.79
2018-09-19T21:44:24.582Z,48.99
2018-09-19T21:46:52.945Z,48.87
2018-09-19T21:49:21.342Z,48.45
2018-09-19T21:51:49.727Z,48.87
2018-09-19T21:54:18.037Z,48.88
2018-09-19T21:56:46.346Z,48.05
2018-09-19T21:59:14.658Z,48.82
2018-09-19T22:01:43.620Z,48.03
2018-09-19T22:04:12.272Z,48.96
2018-09-19T22:06:40.850Z,48.05
2018-09-19T22:09:10.892Z,48.23
2018-09-19T22:11:39.610Z,48.66
2018-09-19T22:14:08.014Z,48.91
2018-09-19T22:16:36.493Z,48.14
2018-09-19T22:19:04.813Z,47.90
2018-09-19T22:21:33.107Z,49.00
2018-09-19T22:24:01.455Z,49.04
2018-09-19T22:26:29.762Z,48.58
2018-09-19T22:28:58.078Z,48.85
2018-09-19T22:31:26.526Z,48.63
2018-09-19T22:33:54.894Z,48.88
2018-09-19T22:36:23.263Z,48.92
2018-09-19T22:38:51.610Z,48.96
2018-09-19T22:41:20.510Z,48.39
2018-09-19T22:43:48.806Z,48.73
2018-09-19T22:46:17.142Z,48.55
2018-09-19T22:48:45.758Z,48.90
2018-09-19T22:51:14.032Z,48.00
2018-09-19T22:53:42.411Z,48.52
2018-09-19T22:56:10.726Z,48.48
2018-09-19T22:58:39.407Z,47.83
2018-09-19T23:01:07.777Z,48.87
2018-09-19T23:03:36.090Z,48.56
2018-09-19T23:06:04.438Z,48.46
2018-09-19T23:08:32.878Z,48.14
2018-09-19T23:11:01.138Z,48.95
2018-09-19T23:13:29.552Z,48.12
2018-09-19T23:15:57.878Z,48.58
2018-09-19T23:18:55.801Z,48.91
2018-09-19T23:21:24.095Z,48.11
2018-09-19T23:23:52.430Z,48.34
2018-09-19T23:26:20.711Z,48.65
2018-09-19T23:28:49.078Z,48.43
2018-09-19T23:31:17.346Z,48.11
2018-09-19T23:33:45.679Z,48.90
2018-09-19T23:36:13.978Z,48.09
2018-09-19T23:38:42.426Z,48.18
2018-09-19T23:41:10.679Z,48.29
2018-09-19T23:43:39.019Z,48.36
2018-09-19T23:46:07.311Z,48.22
2018-09-19T23:48:35.768Z,48.98
2018-09-19T23:51:04.052Z,48.76
2018-09-19T23:53:32.408Z,48.90
2018-09-19T23:56:00.719Z,48.14
2018-09-19T23:58:29.071Z,48.48
